PWSweather.com
Personal Weather Stations
Station Observations
METEOC500
Santo Antonio, FunchalPT 2020

Santo AntonioFunchalPT 2020

Lat: 32.678227, Lon: -16.945054

Elevation: 1669.94751

Station Type: WH Series

High Low Average
Temperature 79.0°F26.1°C 65.1°F18.4°C 71.2°F21.8°C
Dew Point 63.7°F17.6°C 44.8°F7.1°C 54.1°F12.3°C
Winds 11.9 mph 19.2 kmh Calm Calm 4.0 mph WSW6.4 kmh WSW
Wind Gusts 25.1 mph40.4 kmh 2.5 mph4.0 kmh 9.0 mph14.5 kmh
Humidity 76% 40% 56%
Pressure 30.22 in1023.4 mb 30.15 in1021.0 mb -
Precipitation 0.00 in0.0 mm - -
Hour Temp Dew Point Humidity Winds Wind Gusts Pressure Precip Precip Rate Daily Precip Total
12:13 AM 66.6°F19.2°C 51.3°F10.7°C 58% 2.2 mph NNW3.5 kmh NNW 7.6 mph12.2 kmh 30.21 in1023.0 mb 0.00 in0.0 mm 0.00 in0.0 mm 0.00 in0.0 mm
12:28 AM 65.8°F18.8°C 51.1°F10.6°C 59% 2.9 mph NW4.7 kmh NW 10.1 mph16.3 kmh 30.20 in1022.7 mb 0.00 in0.0 mm 0.00 in0.0 mm 0.00 in0.0 mm
12:43 AM 65.5°F18.6°C 51.6°F10.9°C 61% 6.0 mph NNW9.7 kmh NNW 10.1 mph16.3 kmh 30.20 in1022.7 mb 0.00 in0.0 mm 0.00 in0.0 mm 0.00 in0.0 mm
12:58 AM 65.7°F18.7°C 52.3°F11.3°C 62% 6.5 mph N10.5 kmh N 7.6 mph12.2 kmh 30.20 in1022.7 mb 0.00 in0.0 mm 0.00 in0.0 mm 0.00 in0.0 mm
01:14 AM 65.3°F18.5°C 52.0°F11.1°C 62% 1.6 mph WNW2.6 kmh WNW 4.9 mph7.9 kmh 30.20 in1022.7 mb 0.00 in0.0 mm 0.00 in0.0 mm 0.00 in0.0 mm
01:29 AM 65.1°F18.4°C 49.1°F9.5°C 56% 6.0 mph NW9.7 kmh NW 10.1 mph16.3 kmh 30.20 in1022.7 mb 0.00 in0.0 mm 0.00 in0.0 mm 0.00 in0.0 mm
01:44 AM 65.8°F18.8°C 48.7°F9.3°C 54% 6.3 mph NW10.1 kmh NW 10.1 mph16.3 kmh 30.19 in1022.4 mb 0.00 in0.0 mm 0.00 in0.0 mm 0.00 in0.0 mm
01:59 AM 66.4°F19.1°C 48.2°F9.0°C 52% 4.7 mph NW7.6 kmh NW 7.6 mph12.2 kmh 30.19 in1022.4 mb 0.00 in0.0 mm 0.00 in0.0 mm 0.00 in0.0 mm
02:14 AM 66.4°F19.1°C 49.3°F9.6°C 54% 4.9 mph NNW7.9 kmh NNW 10.1 mph16.3 kmh 30.19 in1022.4 mb 0.00 in0.0 mm 0.00 in0.0 mm 0.00 in0.0 mm
02:30 AM 65.8°F18.8°C 48.2°F9.0°C 53% 4.9 mph NW7.9 kmh NW 7.6 mph12.2 kmh 30.18 in1022.0 mb 0.00 in0.0 mm 0.00 in0.0 mm 0.00 in0.0 mm
02:45 AM 66.2°F19.0°C 46.4°F8.0°C 49% 8.7 mph NNW14.0 kmh NNW 12.5 mph20.1 kmh 30.17 in1021.7 mb 0.00 in0.0 mm 0.00 in0.0 mm 0.00 in0.0 mm
03:00 AM 67.1°F19.5°C 49.5°F9.7°C 53% 7.6 mph NNW12.2 kmh NNW 12.5 mph20.1 kmh 30.17 in1021.7 mb 0.00 in0.0 mm 0.00 in0.0 mm 0.00 in0.0 mm
03:15 AM 66.2°F19.0°C 45.9°F7.7°C 48% 5.4 mph NNW8.7 kmh NNW 10.1 mph16.3 kmh 30.17 in1021.7 mb 0.00 in0.0 mm 0.00 in0.0 mm 0.00 in0.0 mm
03:30 AM 66.2°F19.0°C 46.9°F8.3°C 50% 0.9 mph N1.4 kmh N 12.5 mph20.1 kmh 30.17 in1021.7 mb 0.00 in0.0 mm 0.00 in0.0 mm 0.00 in0.0 mm
03:46 AM 66.2°F19.0°C 46.9°F8.3°C 50% 3.1 mph WNW5.0 kmh WNW 10.1 mph16.3 kmh 30.17 in1021.7 mb 0.00 in0.0 mm 0.00 in0.0 mm 0.00 in0.0 mm
04:01 AM 66.0°F18.9°C 47.3°F8.5°C 51% 4.5 mph NW7.2 kmh NW 7.6 mph12.2 kmh 30.16 in1021.3 mb 0.00 in0.0 mm 0.00 in0.0 mm 0.00 in0.0 mm
04:16 AM 66.7°F19.3°C 46.4°F8.0°C 48% 2.9 mph NW4.7 kmh NW 10.1 mph16.3 kmh 30.16 in1021.3 mb 0.00 in0.0 mm 0.00 in0.0 mm 0.00 in0.0 mm
04:31 AM 66.9°F19.4°C 47.7°F8.7°C 50% 3.4 mph NW5.5 kmh NW 10.1 mph16.3 kmh 30.16 in1021.3 mb 0.00 in0.0 mm 0.00 in0.0 mm 0.00 in0.0 mm
04:46 AM 66.6°F19.2°C 47.8°F8.8°C 51% 1.8 mph NW2.9 kmh NW 10.1 mph16.3 kmh 30.16 in1021.3 mb 0.00 in0.0 mm 0.00 in0.0 mm 0.00 in0.0 mm
05:02 AM 66.4°F19.1°C 47.1°F8.4°C 50% 6.5 mph NNW10.5 kmh NNW 7.6 mph12.2 kmh 30.16 in1021.3 mb 0.00 in0.0 mm 0.00 in0.0 mm 0.00 in0.0 mm
05:17 AM 67.1°F19.5°C 47.3°F8.5°C 49% 2.5 mph NNW4.0 kmh NNW 12.5 mph20.1 kmh 30.16 in1021.3 mb 0.00 in0.0 mm 0.00 in0.0 mm 0.00 in0.0 mm
05:32 AM 67.5°F19.7°C 50.7°F10.4°C 55% 6.3 mph NW10.1 kmh NW 7.6 mph12.2 kmh 30.16 in1021.3 mb 0.00 in0.0 mm 0.00 in0.0 mm 0.00 in0.0 mm
05:47 AM 66.7°F19.3°C 44.8°F7.1°C 45% 2.2 mph E3.5 kmh E 12.5 mph20.1 kmh 30.16 in1021.3 mb 0.00 in0.0 mm 0.00 in0.0 mm 0.00 in0.0 mm
06:02 AM 68.0°F20.0°C 45.3°F7.4°C 44% 11.9 mph NW19.2 kmh NW 25.1 mph40.4 kmh 30.16 in1021.3 mb 0.00 in0.0 mm 0.00 in0.0 mm 0.00 in0.0 mm
06:18 AM 69.8°F21.0°C 51.4°F10.8°C 52% 0.2 mph NW0.3 kmh NW 20.1 mph32.3 kmh 30.17 in1021.7 mb 0.00 in0.0 mm 0.00 in0.0 mm 0.00 in0.0 mm
06:33 AM 68.0°F20.0°C 51.3°F10.7°C 55% 7.2 mph NW11.6 kmh NW 10.1 mph16.3 kmh 30.17 in1021.7 mb 0.00 in0.0 mm 0.00 in0.0 mm 0.00 in0.0 mm
06:48 AM 66.0°F18.9°C 49.5°F9.7°C 55% 3.1 mph NNW5.0 kmh NNW 10.1 mph16.3 kmh 30.18 in1022.0 mb 0.00 in0.0 mm 0.00 in0.0 mm 0.00 in0.0 mm
07:03 AM 65.7°F18.7°C 50.0°F10.0°C 57% 3.4 mph 5.5 kmh 7.6 mph12.2 kmh 30.17 in1021.7 mb 0.00 in0.0 mm 0.00 in0.0 mm 0.00 in0.0 mm
07:18 AM 65.5°F18.6°C 50.7°F10.4°C 59% 4.0 mph N6.4 kmh N 10.1 mph16.3 kmh 30.18 in1022.0 mb 0.00 in0.0 mm 0.00 in0.0 mm 0.00 in0.0 mm
07:34 AM 65.7°F18.7°C 49.5°F9.7°C 56% 4.7 mph N7.6 kmh N 10.1 mph16.3 kmh 30.18 in1022.0 mb 0.00 in0.0 mm 0.00 in0.0 mm 0.00 in0.0 mm
07:49 AM 65.8°F18.8°C 49.6°F9.8°C 56% 6.3 mph N10.1 kmh N 10.1 mph16.3 kmh 30.18 in1022.0 mb 0.00 in0.0 mm 0.00 in0.0 mm 0.00 in0.0 mm
08:04 AM 66.6°F19.2°C 51.8°F11.0°C 59% 7.6 mph NNW12.2 kmh NNW 10.1 mph16.3 kmh 30.18 in1022.0 mb 0.00 in0.0 mm 0.00 in0.0 mm 0.00 in0.0 mm
08:19 AM 67.1°F19.5°C 51.8°F11.0°C 58% 6.3 mph NNW10.1 kmh NNW 10.1 mph16.3 kmh 30.19 in1022.4 mb 0.00 in0.0 mm 0.00 in0.0 mm 0.00 in0.0 mm
08:34 AM 67.8°F19.9°C 51.6°F10.9°C 56% Calm Calm 7.6 mph12.2 kmh 30.20 in1022.7 mb 0.00 in0.0 mm 0.00 in0.0 mm 0.00 in0.0 mm
08:49 AM 68.9°F20.5°C 51.1°F10.6°C 53% Calm Calm 7.6 mph12.2 kmh 30.19 in1022.4 mb 0.00 in0.0 mm 0.00 in0.0 mm 0.00 in0.0 mm
09:04 AM 71.2°F21.8°C 50.0°F10.0°C 47% 3.4 mph S5.5 kmh S 4.9 mph7.9 kmh 30.19 in1022.4 mb 0.00 in0.0 mm 0.00 in0.0 mm 0.00 in0.0 mm
09:19 AM 74.1°F23.4°C 50.9°F10.5°C 44% 1.8 mph ESE2.9 kmh ESE 4.9 mph7.9 kmh 30.21 in1023.0 mb 0.00 in0.0 mm 0.00 in0.0 mm 0.00 in0.0 mm
09:35 AM 75.7°F24.3°C 52.9°F11.6°C 45% 5.6 mph SE9.0 kmh SE 7.6 mph12.2 kmh 30.21 in1023.0 mb 0.00 in0.0 mm 0.00 in0.0 mm 0.00 in0.0 mm
09:50 AM 76.6°F24.8°C 53.1°F11.7°C 44% 3.8 mph SSE6.1 kmh SSE 7.6 mph12.2 kmh 30.22 in1023.4 mb 0.00 in0.0 mm 0.00 in0.0 mm 0.00 in0.0 mm
10:06 AM 77.0°F25.0°C 53.4°F11.9°C 44% 3.8 mph SE6.1 kmh SE 7.6 mph12.2 kmh 30.21 in1023.0 mb 0.00 in0.0 mm 0.00 in0.0 mm 0.00 in0.0 mm
10:21 AM 77.5°F25.3°C 56.3°F13.5°C 48% 2.2 mph ENE3.5 kmh ENE 10.1 mph16.3 kmh 30.21 in1023.0 mb 0.00 in0.0 mm 0.00 in0.0 mm 0.00 in0.0 mm
10:36 AM 77.2°F25.1°C 55.4°F13.0°C 47% 4.0 mph SSE6.4 kmh SSE 10.1 mph16.3 kmh 30.21 in1023.0 mb 0.00 in0.0 mm 0.00 in0.0 mm 0.00 in0.0 mm
10:51 AM 77.4°F25.2°C 53.1°F11.7°C 43% 3.8 mph SSW6.1 kmh SSW 10.1 mph16.3 kmh 30.21 in1023.0 mb 0.00 in0.0 mm 0.00 in0.0 mm 0.00 in0.0 mm
11:06 AM 78.6°F25.9°C 55.6°F13.1°C 45% 7.6 mph S12.2 kmh S 10.1 mph16.3 kmh 30.21 in1023.0 mb 0.00 in0.0 mm 0.00 in0.0 mm 0.00 in0.0 mm
11:22 AM 78.4°F25.8°C 57.2°F14.0°C 48% 6.0 mph S9.7 kmh S 10.1 mph16.3 kmh 30.21 in1023.0 mb 0.00 in0.0 mm 0.00 in0.0 mm 0.00 in0.0 mm
11:37 AM 78.1°F25.6°C 56.3°F13.5°C 47% 4.7 mph SSW7.6 kmh SSW 10.1 mph16.3 kmh 30.20 in1022.7 mb 0.00 in0.0 mm 0.00 in0.0 mm 0.00 in0.0 mm
11:52 AM 78.3°F25.7°C 55.8°F13.2°C 46% 1.3 mph S2.1 kmh S 12.5 mph20.1 kmh 30.19 in1022.4 mb 0.00 in0.0 mm 0.00 in0.0 mm 0.00 in0.0 mm
12:07 PM 78.6°F25.9°C 57.2°F14.0°C 48% 6.0 mph SE9.7 kmh SE 10.1 mph16.3 kmh 30.19 in1022.4 mb 0.00 in0.0 mm 0.00 in0.0 mm 0.00 in0.0 mm
12:22 PM 78.4°F25.8°C 57.2°F14.0°C 48% 4.9 mph SE7.9 kmh SE 12.5 mph20.1 kmh 30.20 in1022.7 mb 0.00 in0.0 mm 0.00 in0.0 mm 0.00 in0.0 mm
12:38 PM 77.7°F25.4°C 55.9°F13.3°C 47% 5.4 mph SSE8.7 kmh SSE 12.5 mph20.1 kmh 30.20 in1022.7 mb 0.00 in0.0 mm 0.00 in0.0 mm 0.00 in0.0 mm
12:53 PM 77.7°F25.4°C 56.5°F13.6°C 48% 5.4 mph SW8.7 kmh SW 10.1 mph16.3 kmh 30.19 in1022.4 mb 0.00 in0.0 mm 0.00 in0.0 mm 0.00 in0.0 mm
01:08 PM 77.9°F25.5°C 56.1°F13.4°C 47% 1.6 mph E2.6 kmh E 15.0 mph24.1 kmh 30.19 in1022.4 mb 0.00 in0.0 mm 0.00 in0.0 mm 0.00 in0.0 mm
01:23 PM 77.9°F25.5°C 56.7°F13.7°C 48% 0.7 mph SW1.1 kmh SW 17.4 mph28.0 kmh 30.19 in1022.4 mb 0.00 in0.0 mm 0.00 in0.0 mm 0.00 in0.0 mm
01:38 PM 78.1°F25.6°C 57.4°F14.1°C 49% 0.9 mph SSE1.4 kmh SSE 12.5 mph20.1 kmh 30.19 in1022.4 mb 0.00 in0.0 mm 0.00 in0.0 mm 0.00 in0.0 mm
01:54 PM 77.7°F25.4°C 58.1°F14.5°C 51% 7.8 mph E12.6 kmh E 12.5 mph20.1 kmh 30.18 in1022.0 mb 0.00 in0.0 mm 0.00 in0.0 mm 0.00 in0.0 mm
02:09 PM 77.4°F25.2°C 54.3°F12.4°C 45% 7.2 mph SE11.6 kmh SE 12.5 mph20.1 kmh 30.17 in1021.7 mb 0.00 in0.0 mm 0.00 in0.0 mm 0.00 in0.0 mm
02:24 PM 77.5°F25.3°C 56.8°F13.8°C 49% 7.2 mph SSW11.6 kmh SSW 12.5 mph20.1 kmh 30.17 in1021.7 mb 0.00 in0.0 mm 0.00 in0.0 mm 0.00 in0.0 mm
02:39 PM 77.7°F25.4°C 58.1°F14.5°C 51% 1.8 mph S2.9 kmh S 10.1 mph16.3 kmh 30.17 in1021.7 mb 0.00 in0.0 mm 0.00 in0.0 mm 0.00 in0.0 mm
02:54 PM 77.5°F25.3°C 56.8°F13.8°C 49% 4.9 mph ESE7.9 kmh ESE 10.1 mph16.3 kmh 30.16 in1021.3 mb 0.00 in0.0 mm 0.00 in0.0 mm 0.00 in0.0 mm
03:10 PM 77.4°F25.2°C 56.1°F13.4°C 48% 1.3 mph SSW2.1 kmh SSW 10.1 mph16.3 kmh 30.16 in1021.3 mb 0.00 in0.0 mm 0.00 in0.0 mm 0.00 in0.0 mm
03:25 PM 77.9°F25.5°C 56.7°F13.7°C 48% 8.7 mph SSE14.0 kmh SSE 10.1 mph16.3 kmh 30.15 in1021.0 mb 0.00 in0.0 mm 0.00 in0.0 mm 0.00 in0.0 mm
03:40 PM 78.3°F25.7°C 56.3°F13.5°C 47% 3.8 mph SSW6.1 kmh SSW 10.1 mph16.3 kmh 30.16 in1021.3 mb 0.00 in0.0 mm 0.00 in0.0 mm 0.00 in0.0 mm
03:55 PM 79.0°F26.1°C 59.4°F15.2°C 51% 3.8 mph SSE6.1 kmh SSE 7.6 mph12.2 kmh 30.16 in1021.3 mb 0.00 in0.0 mm 0.00 in0.0 mm 0.00 in0.0 mm
04:10 PM 78.8°F26.0°C 60.3°F15.7°C 53% 5.4 mph SE8.7 kmh SE 10.1 mph16.3 kmh 30.16 in1021.3 mb 0.00 in0.0 mm 0.00 in0.0 mm 0.00 in0.0 mm
04:26 PM 77.7°F25.4°C 60.3°F15.7°C 55% 1.8 mph S2.9 kmh S 7.6 mph12.2 kmh 30.17 in1021.7 mb 0.00 in0.0 mm 0.00 in0.0 mm 0.00 in0.0 mm
04:41 PM 77.9°F25.5°C 61.5°F16.4°C 57% 3.8 mph SSW6.1 kmh SSW 7.6 mph12.2 kmh 30.16 in1021.3 mb 0.00 in0.0 mm 0.00 in0.0 mm 0.00 in0.0 mm
04:56 PM 77.7°F25.4°C 60.3°F15.7°C 55% 4.5 mph S7.2 kmh S 10.1 mph16.3 kmh 30.16 in1021.3 mb 0.00 in0.0 mm 0.00 in0.0 mm 0.00 in0.0 mm
05:11 PM 76.6°F24.8°C 54.9°F12.7°C 47% 10.3 mph SSE16.6 kmh SSE 12.5 mph20.1 kmh 30.16 in1021.3 mb 0.00 in0.0 mm 0.00 in0.0 mm 0.00 in0.0 mm
05:26 PM 76.1°F24.5°C 50.7°F10.4°C 41% 10.7 mph SSW17.2 kmh SSW 20.1 mph32.3 kmh 30.16 in1021.3 mb 0.00 in0.0 mm 0.00 in0.0 mm 0.00 in0.0 mm
05:42 PM 76.8°F24.9°C 55.6°F13.1°C 48% 7.2 mph S11.6 kmh S 17.4 mph28.0 kmh 30.16 in1021.3 mb 0.00 in0.0 mm 0.00 in0.0 mm 0.00 in0.0 mm
05:57 PM 77.2°F25.1°C 51.1°F10.6°C 40% 1.8 mph WNW2.9 kmh WNW 15.0 mph24.1 kmh 30.16 in1021.3 mb 0.00 in0.0 mm 0.00 in0.0 mm 0.00 in0.0 mm
06:12 PM 76.8°F24.9°C 56.3°F13.5°C 49% 5.4 mph SW8.7 kmh SW 15.0 mph24.1 kmh 30.16 in1021.3 mb 0.00 in0.0 mm 0.00 in0.0 mm 0.00 in0.0 mm
06:28 PM 74.5°F23.6°C 63.7°F17.6°C 69% 3.1 mph S5.0 kmh S 10.1 mph16.3 kmh 30.16 in1021.3 mb 0.00 in0.0 mm 0.00 in0.0 mm 0.00 in0.0 mm
06:43 PM 72.0°F22.2°C 62.4°F16.9°C 72% Calm Calm 2.5 mph4.0 kmh 30.16 in1021.3 mb 0.00 in0.0 mm 0.00 in0.0 mm 0.00 in0.0 mm
06:59 PM 71.1°F21.7°C 59.2°F15.1°C 66% 1.6 mph S2.6 kmh S 4.9 mph7.9 kmh 30.16 in1021.3 mb 0.00 in0.0 mm 0.00 in0.0 mm 0.00 in0.0 mm
07:15 PM 70.9°F21.6°C 60.3°F15.7°C 69% Calm Calm 4.9 mph7.9 kmh 30.16 in1021.3 mb 0.00 in0.0 mm 0.00 in0.0 mm 0.00 in0.0 mm
07:31 PM 70.5°F21.4°C 60.6°F15.9°C 71% Calm Calm 2.5 mph4.0 kmh 30.16 in1021.3 mb 0.00 in0.0 mm 0.00 in0.0 mm 0.00 in0.0 mm
07:46 PM 69.8°F21.0°C 61.5°F16.4°C 75% 3.1 mph SW5.0 kmh SW 4.9 mph7.9 kmh 30.16 in1021.3 mb 0.00 in0.0 mm 0.00 in0.0 mm 0.00 in0.0 mm
08:02 PM 69.1°F20.6°C 61.2°F16.2°C 76% Calm Calm 2.5 mph4.0 kmh 30.16 in1021.3 mb 0.00 in0.0 mm 0.00 in0.0 mm 0.00 in0.0 mm
08:18 PM 68.4°F20.2°C 60.4°F15.8°C 76% Calm Calm 2.5 mph4.0 kmh 30.16 in1021.3 mb 0.00 in0.0 mm 0.00 in0.0 mm 0.00 in0.0 mm
08:34 PM 67.6°F19.8°C 59.7°F15.4°C 76% Calm Calm 4.9 mph7.9 kmh 30.17 in1021.7 mb 0.00 in0.0 mm 0.00 in0.0 mm 0.00 in0.0 mm
08:49 PM 67.5°F19.7°C 59.5°F15.3°C 76% 3.4 mph NNW5.5 kmh NNW 4.9 mph7.9 kmh 30.18 in1022.0 mb 0.00 in0.0 mm 0.00 in0.0 mm 0.00 in0.0 mm
09:04 PM 67.3°F19.6°C 58.6°F14.8°C 74% Calm Calm 2.5 mph4.0 kmh 30.18 in1022.0 mb 0.00 in0.0 mm 0.00 in0.0 mm 0.00 in0.0 mm
09:20 PM 66.9°F19.4°C 58.3°F14.6°C 74% Calm Calm 4.9 mph7.9 kmh 30.18 in1022.0 mb 0.00 in0.0 mm 0.00 in0.0 mm 0.00 in0.0 mm
09:36 PM 66.6°F19.2°C 58.1°F14.5°C 74% 0.2 mph N0.3 kmh N 4.9 mph7.9 kmh 30.18 in1022.0 mb 0.00 in0.0 mm 0.00 in0.0 mm 0.00 in0.0 mm
09:51 PM 66.4°F19.1°C 57.9°F14.4°C 74% 2.2 mph NW3.5 kmh NW 2.5 mph4.0 kmh 30.18 in1022.0 mb 0.00 in0.0 mm 0.00 in0.0 mm 0.00 in0.0 mm
10:07 PM 66.2°F19.0°C 57.7°F14.3°C 74% 3.1 mph NW5.0 kmh NW 7.6 mph12.2 kmh 30.18 in1022.0 mb 0.00 in0.0 mm 0.00 in0.0 mm 0.00 in0.0 mm
10:22 PM 66.0°F18.9°C 57.9°F14.4°C 75% 3.8 mph N6.1 kmh N 4.9 mph7.9 kmh 30.18 in1022.0 mb 0.00 in0.0 mm 0.00 in0.0 mm 0.00 in0.0 mm
10:38 PM 65.8°F18.8°C 57.4°F14.1°C 74% Calm Calm 7.6 mph12.2 kmh 30.17 in1021.7 mb 0.00 in0.0 mm 0.00 in0.0 mm 0.00 in0.0 mm
10:54 PM 65.7°F18.7°C 57.6°F14.2°C 75% 3.8 mph NNW6.1 kmh NNW 7.6 mph12.2 kmh 30.18 in1022.0 mb 0.00 in0.0 mm 0.00 in0.0 mm 0.00 in0.0 mm
11:10 PM 65.7°F18.7°C 57.2°F14.0°C 74% Calm Calm 7.6 mph12.2 kmh 30.18 in1022.0 mb 0.00 in0.0 mm 0.00 in0.0 mm 0.00 in0.0 mm
11:26 PM 65.8°F18.8°C 57.7°F14.3°C 75% 4.5 mph NNW7.2 kmh NNW 10.1 mph16.3 kmh 30.18 in1022.0 mb 0.00 in0.0 mm 0.00 in0.0 mm 0.00 in0.0 mm
11:42 PM 66.0°F18.9°C 54.3°F12.4°C 66% 3.4 mph NW5.5 kmh NW 4.9 mph7.9 kmh 30.16 in1021.3 mb 0.00 in0.0 mm 0.00 in0.0 mm 0.00 in0.0 mm
11:59 PM 66.9°F19.4°C 55.2°F12.9°C 66% Calm Calm 4.9 mph7.9 kmh 30.16 in1021.3 mb 0.00 in0.0 mm 0.00 in0.0 mm 0.00 in0.0 mm